createdAt,value
2023-04-26T00:00:55.783Z,87.2
2023-04-26T00:01:55.772Z,87.3
2023-04-26T00:02:55.991Z,87.6
2023-04-26T00:03:55.976Z,87.6
2023-04-26T00:04:56.455Z,87.8
2023-04-26T00:05:55.912Z,87.8
2023-04-26T00:06:55.770Z,87.7
2023-04-26T00:07:55.781Z,88.4
2023-04-26T00:08:55.840Z,88.8
2023-04-26T00:09:55.770Z,88.6
2023-04-26T00:10:55.765Z,88.5
2023-04-26T00:11:55.778Z,88.8
2023-04-26T00:12:55.773Z,89.3
2023-04-26T00:13:55.780Z,89.2
2023-04-26T00:14:55.774Z,89.5
2023-04-26T00:15:55.795Z,89.6
2023-04-26T00:16:55.786Z,89.9
2023-04-26T00:17:55.819Z,89.7
2023-04-26T00:18:55.781Z,90
2023-04-26T00:19:55.753Z,90.4
2023-04-26T00:20:55.790Z,90.4
2023-04-26T00:21:55.769Z,90.6
2023-04-26T00:22:55.786Z,90.7
2023-04-26T00:23:55.798Z,90.9
2023-04-26T00:24:55.795Z,91.2
2023-04-26T00:25:55.755Z,91
2023-04-26T00:26:55.801Z,91.2
2023-04-26T00:27:55.782Z,91.2
2023-04-26T00:28:55.804Z,91.4
2023-04-26T00:29:55.795Z,91.3
2023-04-26T00:30:55.798Z,91.8
2023-04-26T00:31:55.892Z,92.1
2023-04-26T00:32:55.912Z,92.5
2023-04-26T00:33:55.933Z,92.5
2023-04-26T00:34:55.782Z,92.5
2023-04-26T00:35:55.774Z,92.7
2023-04-26T00:36:55.788Z,92.8
2023-04-26T00:37:55.774Z,93.2
2023-04-26T00:38:55.910Z,93.6
2023-04-26T00:39:55.783Z,93.5
2023-04-26T00:40:55.821Z,93.8
2023-04-26T00:41:55.767Z,94.2
2023-04-26T00:42:55.771Z,94.1
2023-04-26T00:43:55.791Z,94.3
2023-04-26T00:44:56.222Z,94.2
2023-04-26T00:45:55.822Z,94.3
2023-04-26T00:46:55.791Z,94.4
2023-04-26T00:47:55.786Z,94.3
2023-04-26T00:48:55.781Z,94.5
2023-04-26T00:49:55.771Z,94.5
2023-04-26T00:50:55.774Z,95
2023-04-26T00:51:55.763Z,94.8
2023-04-26T00:52:55.784Z,95
2023-04-26T00:53:55.770Z,95
2023-04-26T00:54:55.771Z,95.2
2023-04-26T00:55:55.806Z,95.7
2023-04-26T00:56:55.804Z,95.5
2023-04-26T00:57:55.778Z,95.5
2023-04-26T00:58:55.769Z,95.7
2023-04-26T00:59:55.776Z,95.8
2023-04-26T01:00:55.811Z,95.7
2023-04-26T01:01:55.778Z,95.9
2023-04-26T01:02:55.841Z,95.8
2023-04-26T01:03:55.998Z,95.6
2023-04-26T01:04:55.778Z,95.8
2023-04-26T01:05:55.783Z,95.8
2023-04-26T01:06:55.800Z,96.1
2023-04-26T01:07:55.775Z,96.3
2023-04-26T01:08:55.768Z,96.4
2023-04-26T01:09:55.788Z,96.6
2023-04-26T01:10:55.821Z,96.5
2023-04-26T01:11:55.778Z,96.5
2023-04-26T01:12:55.766Z,96.7
2023-04-26T01:13:55.785Z,96.7
2023-04-26T01:14:55.776Z,97.1
2023-04-26T01:15:55.804Z,97.4
2023-04-26T01:16:55.792Z,97.6
2023-04-26T01:17:55.809Z,97.5
2023-04-26T01:18:55.778Z,97.4
2023-04-26T01:19:55.747Z,97.2
2023-04-26T01:20:55.749Z,97.1
2023-04-26T01:21:55.754Z,96.9
2023-04-26T01:22:55.767Z,97.3
2023-04-26T01:23:55.758Z,97.3
2023-04-26T01:24:55.776Z,96.9
2023-04-26T01:25:55.755Z,96.7
2023-04-26T01:26:55.787Z,96.4
2023-04-26T01:27:55.812Z,96.4
2023-04-26T01:28:55.767Z,96.4
2023-04-26T01:29:55.763Z,96.7
2023-04-26T01:30:55.808Z,96.8
2023-04-26T01:31:55.843Z,96.9
2023-04-26T01:32:55.781Z,97
2023-04-26T01:33:55.776Z,97.1
2023-04-26T01:34:55.759Z,97.3
2023-04-26T01:35:55.758Z,97.4
2023-04-26T01:36:55.769Z,98.1
2023-04-26T01:37:55.766Z,98.2
2023-04-26T01:38:55.759Z,98.2
2023-04-26T01:39:55.788Z,98
2023-04-26T01:40:55.760Z,97.9
2023-04-26T01:41:55.758Z,97.8
2023-04-26T01:43:55.769Z,98.2
2023-04-26T01:45:02.200Z,98.6
2023-04-26T01:45:55.800Z,98.6
2023-04-26T01:46:55.760Z,98.8
2023-04-26T01:47:55.783Z,98.7
2023-04-26T01:48:55.765Z,99
2023-04-26T01:49:55.741Z,99.5
2023-04-26T01:50:55.763Z,99.9
2023-04-26T01:51:55.766Z,100
2023-04-26T01:52:55.743Z,100
2023-04-26T01:53:55.759Z,100
2023-04-26T01:54:55.817Z,100
2023-04-26T01:55:55.764Z,100
2023-04-26T01:56:55.740Z,100
2023-04-26T01:57:55.794Z,100
2023-04-26T01:58:55.795Z,100
2023-04-26T01:59:55.771Z,100
2023-04-26T02:00:55.752Z,100
2023-04-26T02:01:55.826Z,100
2023-04-26T02:03:55.755Z,100
2023-04-26T02:04:55.813Z,100
2023-04-26T02:05:55.770Z,100
2023-04-26T02:06:55.760Z,100
2023-04-26T02:07:55.751Z,100
2023-04-26T02:08:55.928Z,100
2023-04-26T02:09:55.745Z,100
2023-04-26T02:10:55.770Z,100
2023-04-26T02:11:55.754Z,100
2023-04-26T02:13:55.744Z,100
2023-04-26T02:14:55.757Z,100
2023-04-26T02:15:55.813Z,100
2023-04-26T02:16:55.762Z,100
2023-04-26T02:17:55.862Z,100
2023-04-26T02:18:55.759Z,100
2023-04-26T02:19:55.777Z,100
2023-04-26T02:20:55.771Z,100
2023-04-26T02:21:55.823Z,100
2023-04-26T02:22:55.767Z,100
2023-04-26T02:23:55.750Z,100
2023-04-26T02:24:55.746Z,100
2023-04-26T02:25:55.738Z,100
2023-04-26T02:26:55.763Z,100
2023-04-26T02:27:55.815Z,100
2023-04-26T02:28:55.770Z,100
2023-04-26T02:29:55.758Z,100
2023-04-26T02:31:55.841Z,100
2023-04-26T02:32:55.772Z,100
2023-04-26T02:33:55.749Z,100
2023-04-26T02:34:55.841Z,100
2023-04-26T02:35:55.779Z,100
2023-04-26T02:36:55.758Z,100
2023-04-26T02:37:55.750Z,100
2023-04-26T02:38:55.755Z,100
2023-04-26T02:39:55.765Z,100
2023-04-26T02:40:55.800Z,100
2023-04-26T02:41:55.764Z,100
2023-04-26T02:42:55.765Z,100
2023-04-26T02:43:55.752Z,100
2023-04-26T02:44:49.632Z,100
2023-04-26T02:45:55.764Z,100
2023-04-26T02:46:55.766Z,100
2023-04-26T02:47:55.869Z,100
2023-04-26T02:48:55.785Z,100
2023-04-26T02:49:55.759Z,100
2023-04-26T02:50:55.750Z,100
2023-04-26T02:51:55.759Z,100
2023-04-26T02:52:55.763Z,100
2023-04-26T02:53:55.785Z,100
2023-04-26T02:54:55.744Z,100
2023-04-26T02:55:55.767Z,100
2023-04-26T02:56:55.767Z,100
2023-04-26T02:57:55.742Z,100
2023-04-26T02:58:55.765Z,100
2023-04-26T02:59:55.768Z,100
2023-04-26T03:00:55.794Z,100
2023-04-26T03:01:55.770Z,100
2023-04-26T03:02:55.903Z,100
2023-04-26T03:03:55.802Z,100
2023-04-26T03:04:55.755Z,100
2023-04-26T03:05:55.751Z,100
2023-04-26T03:06:55.742Z,100
2023-04-26T03:07:55.819Z,100
2023-04-26T03:08:55.749Z,100
2023-04-26T03:09:55.746Z,100
2023-04-26T03:10:55.775Z,100
2023-04-26T03:11:55.744Z,100
2023-04-26T03:12:55.755Z,100
2023-04-26T03:13:55.790Z,100
2023-04-26T03:14:55.801Z,100
2023-04-26T03:16:55.849Z,100
2023-04-26T03:17:55.776Z,100
2023-04-26T03:18:55.758Z,100
2023-04-26T03:19:55.762Z,100
2023-04-26T03:20:55.748Z,100
2023-04-26T03:21:55.802Z,100
2023-04-26T03:22:55.752Z,100
2023-04-26T03:23:55.750Z,100
2023-04-26T03:24:55.768Z,100
2023-04-26T03:25:55.757Z,100
2023-04-26T03:26:55.755Z,100
2023-04-26T03:27:55.757Z,100
2023-04-26T03:28:55.801Z,100
2023-04-26T03:29:55.741Z,100
2023-04-26T03:30:55.744Z,100
2023-04-26T03:31:55.804Z,100
2023-04-26T03:32:55.840Z,100
2023-04-26T03:33:55.760Z,100
2023-04-26T03:34:55.744Z,100
2023-04-26T03:35:55.776Z,100
2023-04-26T03:36:55.775Z,100
2023-04-26T03:37:58.486Z,100
2023-04-26T03:38:55.756Z,100
2023-04-26T03:39:55.767Z,100
2023-04-26T03:40:55.756Z,100
2023-04-26T03:41:55.771Z,100
2023-04-26T03:43:55.760Z,100
2023-04-26T03:44:55.744Z,100
2023-04-26T03:45:55.775Z,100
2023-04-26T03:46:55.756Z,100
2023-04-26T03:47:55.787Z,100
2023-04-26T03:48:55.723Z,100
2023-04-26T03:49:55.775Z,100
2023-04-26T03:50:55.751Z,100
2023-04-26T03:51:55.751Z,100
2023-04-26T03:52:55.749Z,100
2023-04-26T03:53:55.767Z,100
2023-04-26T03:54:55.792Z,100
2023-04-26T03:55:55.745Z,100
2023-04-26T03:56:55.762Z,100
2023-04-26T03:57:55.759Z,100
2023-04-26T03:58:55.773Z,100
2023-04-26T03:59:55.733Z,100
2023-04-26T04:00:55.731Z,100
2023-04-26T04:01:55.845Z,100
2023-04-26T04:02:55.863Z,100
2023-04-26T04:04:55.875Z,100
2023-04-26T04:05:55.759Z,100
2023-04-26T04:06:55.769Z,100
2023-04-26T04:07:55.745Z,100
2023-04-26T04:08:55.801Z,100
2023-04-26T04:09:55.752Z,100
2023-04-26T04:10:55.762Z,100
2023-04-26T04:11:55.879Z,100
2023-04-26T04:12:55.755Z,100
2023-04-26T04:13:55.754Z,100
2023-04-26T04:14:55.741Z,100
2023-04-26T04:15:55.756Z,100
2023-04-26T04:16:55.761Z,100
2023-04-26T04:17:55.774Z,100
2023-04-26T04:18:55.743Z,100
2023-04-26T04:19:55.732Z,100
2023-04-26T04:20:55.724Z,100
2023-04-26T04:21:55.787Z,100
2023-04-26T04:22:55.747Z,100
2023-04-26T04:23:55.742Z,100
2023-04-26T04:24:55.746Z,100
2023-04-26T04:25:55.747Z,100
2023-04-26T04:26:55.739Z,100
2023-04-26T04:27:55.740Z,100
2023-04-26T04:28:55.750Z,100
2023-04-26T04:29:55.738Z,100
2023-04-26T04:30:55.796Z,100
2023-04-26T04:31:55.745Z,100
2023-04-26T04:32:55.741Z,100
2023-04-26T04:33:55.748Z,100
2023-04-26T04:34:55.750Z,100
2023-04-26T04:35:55.759Z,100
2023-04-26T04:36:55.749Z,100
2023-04-26T04:37:55.760Z,100
2023-04-26T04:38:55.736Z,100
2023-04-26T04:39:55.741Z,100
2023-04-26T04:40:55.729Z,100
2023-04-26T04:41:55.771Z,100
2023-04-26T04:42:55.759Z,100
2023-04-26T04:43:55.752Z,100
2023-04-26T04:44:55.757Z,100
2023-04-26T04:45:55.781Z,100
2023-04-26T04:46:55.770Z,100
2023-04-26T04:47:55.823Z,100
2023-04-26T04:48:55.765Z,100
2023-04-26T04:49:55.752Z,100
2023-04-26T04:50:55.720Z,100
2023-04-26T04:51:55.734Z,100
2023-04-26T04:52:55.746Z,100
2023-04-26T04:53:55.739Z,100
2023-04-26T04:55:55.727Z,100
2023-04-26T04:56:55.738Z,100
2023-04-26T04:57:55.780Z,100
2023-04-26T04:58:55.764Z,100
2023-04-26T04:59:55.738Z,100
2023-04-26T05:00:55.732Z,100
2023-04-26T05:01:55.797Z,100
2023-04-26T05:02:55.923Z,100
2023-04-26T05:03:56.185Z,100
2023-04-26T05:04:55.822Z,100
2023-04-26T05:05:55.791Z,100
2023-04-26T05:06:55.785Z,100
2023-04-26T05:07:55.731Z,99.6
2023-04-26T05:08:55.751Z,99.1
2023-04-26T05:09:55.751Z,98.7
2023-04-26T05:10:55.754Z,97.9
2023-04-26T05:11:55.745Z,97.7
2023-04-26T05:12:55.774Z,97.8
2023-04-26T05:13:56.085Z,97.8
2023-04-26T05:14:55.736Z,97.9
2023-04-26T05:15:55.793Z,97.5
2023-04-26T05:16:55.773Z,97.3
2023-04-26T05:17:55.872Z,97.4
2023-04-26T05:18:55.740Z,97.3
2023-04-26T05:19:55.737Z,96.9
2023-04-26T05:20:55.741Z,96.7
2023-04-26T05:21:55.751Z,96.1
2023-04-26T05:22:55.816Z,95.9
2023-04-26T05:23:55.801Z,95.6
2023-04-26T05:24:55.753Z,95.1
2023-04-26T05:25:55.786Z,95.1
2023-04-26T05:26:55.822Z,94.5
2023-04-26T05:27:55.814Z,94.2
2023-04-26T05:28:55.739Z,93.7
2023-04-26T05:29:55.802Z,93.4
2023-04-26T05:30:55.803Z,93
2023-04-26T05:31:55.870Z,92.7
2023-04-26T05:32:55.753Z,92.5
2023-04-26T05:33:55.738Z,92.2
2023-04-26T05:34:55.751Z,91.5
2023-04-26T05:35:55.746Z,91
2023-04-26T05:36:55.736Z,90.6
2023-04-26T05:37:55.728Z,90.6
2023-04-26T05:38:55.746Z,90.6
2023-04-26T05:39:55.736Z,90.6
2023-04-26T05:40:55.743Z,90.6
2023-04-26T05:41:55.730Z,91.3
2023-04-26T05:42:55.745Z,92.3
2023-04-26T05:43:55.806Z,91.4
2023-04-26T05:44:55.727Z,89.8
2023-04-26T05:45:55.857Z,89.4
2023-04-26T05:46:55.788Z,89.8
2023-04-26T05:47:55.763Z,89.9
2023-04-26T05:48:55.755Z,89.1
2023-04-26T05:49:55.749Z,89.1
2023-04-26T05:50:55.730Z,89.2
2023-04-26T05:51:55.738Z,88.8
2023-04-26T05:52:55.728Z,87.6
2023-04-26T05:53:55.746Z,87.1
2023-04-26T05:54:55.731Z,86.8
2023-04-26T05:55:55.719Z,87.1
2023-04-26T05:56:57.776Z,87.4
2023-04-26T05:57:55.791Z,87.2
2023-04-26T05:58:55.719Z,86.6
2023-04-26T05:59:55.722Z,86.2
2023-04-26T06:00:55.716Z,84.6
2023-04-26T06:01:55.780Z,84.4
2023-04-26T06:02:55.854Z,84.8
2023-04-26T06:03:59.130Z,84.3
2023-04-26T06:04:56.003Z,83.1
2023-04-26T06:05:55.860Z,83.7
2023-04-26T06:06:55.725Z,83.7
2023-04-26T06:07:55.729Z,83.7
2023-04-26T06:08:55.774Z,83.8
2023-04-26T06:09:55.740Z,83.4
2023-04-26T06:10:55.734Z,83.8
2023-04-26T06:11:55.764Z,83.6
2023-04-26T06:12:55.756Z,83.4
2023-04-26T06:13:55.728Z,83.4
2023-04-26T06:14:55.750Z,83.4
2023-04-26T06:15:55.740Z,83
2023-04-26T06:16:55.848Z,83.1
2023-04-26T06:17:55.738Z,82.6
2023-04-26T06:18:55.813Z,82.8
2023-04-26T06:19:55.817Z,82.2
2023-04-26T06:20:55.734Z,81.2
2023-04-26T06:21:55.779Z,81.6
2023-04-26T06:22:55.755Z,81.7
2023-04-26T06:23:55.857Z,81.7
2023-04-26T06:24:55.728Z,81.1
2023-04-26T06:25:55.713Z,81.1
2023-04-26T06:26:55.729Z,81.8
2023-04-26T06:27:55.781Z,81.5
2023-04-26T06:28:55.736Z,81.5
2023-04-26T06:29:55.735Z,81.6
2023-04-26T06:31:55.725Z,80.1
2023-04-26T06:32:55.778Z,79.4
2023-04-26T06:33:55.946Z,79.8
2023-04-26T06:34:55.716Z,79.8
2023-04-26T06:35:55.757Z,78.9
2023-04-26T06:36:55.749Z,78.6
2023-04-26T06:37:55.756Z,77.7
2023-04-26T06:38:55.743Z,77.5
2023-04-26T06:39:55.735Z,77.2
2023-04-26T06:40:55.739Z,77.2
2023-04-26T06:41:55.786Z,77.4
2023-04-26T06:42:55.741Z,77.6
2023-04-26T06:44:55.733Z,78.1
2023-04-26T06:45:55.788Z,77.1
2023-04-26T06:46:55.727Z,77.4
2023-04-26T06:47:55.765Z,77.5
2023-04-26T06:48:55.724Z,77
2023-04-26T06:49:55.734Z,75.9
2023-04-26T06:52:55.729Z,74.3
2023-04-26T06:53:55.761Z,75
2023-04-26T06:54:57.576Z,74.5
2023-04-26T06:55:55.730Z,74.3
2023-04-26T06:56:56.014Z,73.6
2023-04-26T06:57:55.740Z,73.3
2023-04-26T06:58:55.720Z,74.8
2023-04-26T06:59:55.736Z,75.5
2023-04-26T07:00:55.756Z,75.9
2023-04-26T07:01:55.804Z,75.5
2023-04-26T07:02:55.842Z,74.6
2023-04-26T07:03:56.200Z,74.8
2023-04-26T07:04:55.910Z,74.2
2023-04-26T07:06:55.765Z,74
2023-04-26T07:07:55.776Z,74.3
2023-04-26T07:08:55.735Z,74.2
2023-04-26T07:09:55.742Z,73.7
2023-04-26T07:10:55.744Z,72.1
2023-04-26T07:11:56.140Z,72.6
2023-04-26T07:12:55.757Z,72.4
2023-04-26T07:13:55.890Z,72.8
2023-04-26T07:14:55.761Z,73.4
2023-04-26T07:15:55.758Z,73.8
2023-04-26T07:16:55.742Z,74.1
2023-04-26T07:17:55.812Z,73.7
2023-04-26T07:18:55.741Z,71.7
2023-04-26T07:19:56.273Z,71.9
2023-04-26T07:20:55.731Z,71.4
2023-04-26T07:21:55.722Z,72
2023-04-26T07:22:55.751Z,72
2023-04-26T07:23:55.785Z,72.6
2023-04-26T07:24:55.856Z,73.3
2023-04-26T07:25:56.388Z,71.1
2023-04-26T07:26:55.751Z,71.6
2023-04-26T07:27:55.781Z,71.5
2023-04-26T07:28:55.751Z,71.1
2023-04-26T07:29:55.734Z,71.8
2023-04-26T07:30:55.764Z,72.1
2023-04-26T07:31:55.730Z,72.5
2023-04-26T07:32:55.800Z,73.2
2023-04-26T07:33:56.064Z,72.5
2023-04-26T07:34:55.747Z,72
2023-04-26T07:35:55.744Z,71.4
2023-04-26T07:36:55.739Z,70.5
2023-04-26T07:37:55.740Z,71
2023-04-26T07:38:55.751Z,71.6
2023-04-26T07:39:55.757Z,71.6
2023-04-26T07:40:55.733Z,71.9
2023-04-26T07:41:55.792Z,71.4
2023-04-26T07:42:55.730Z,69.9
2023-04-26T07:43:55.734Z,70.2
2023-04-26T07:44:55.739Z,70.7
2023-04-26T07:45:55.821Z,70
2023-04-26T07:46:55.749Z,69.8
2023-04-26T07:47:55.771Z,70
2023-04-26T07:48:55.754Z,68.6
2023-04-26T07:49:55.738Z,69.3
2023-04-26T07:50:55.770Z,68.9
2023-04-26T07:51:55.729Z,67.6
2023-04-26T07:52:55.740Z,67
2023-04-26T07:53:55.830Z,68
2023-04-26T07:54:55.738Z,67
2023-04-26T07:55:55.726Z,67
2023-04-26T07:56:55.750Z,67.1
2023-04-26T07:57:55.794Z,67.5
2023-04-26T07:58:55.744Z,67.4
2023-04-26T07:59:55.742Z,67.2
2023-04-26T08:00:55.738Z,66.7
2023-04-26T08:01:55.798Z,66.2
2023-04-26T08:02:55.890Z,65.5
2023-04-26T08:03:56.086Z,66.2
2023-04-26T08:04:55.953Z,65.6
2023-04-26T08:05:55.994Z,65.9
2023-04-26T08:06:55.734Z,65.7
2023-04-26T08:07:55.763Z,65.2
2023-04-26T08:08:55.730Z,64.3
2023-04-26T08:09:55.738Z,65
2023-04-26T08:10:55.740Z,65.3
2023-04-26T08:11:55.795Z,64.3
2023-04-26T08:12:55.758Z,62.8
2023-04-26T08:13:55.752Z,61.3
2023-04-26T08:14:55.732Z,60.8
2023-04-26T08:15:55.743Z,60.9
2023-04-26T08:16:55.782Z,59.5
2023-04-26T08:17:55.820Z,59.1
2023-04-26T08:18:55.735Z,58.4
2023-04-26T08:19:55.749Z,58.2
2023-04-26T08:20:55.753Z,58.2
2023-04-26T08:21:55.740Z,58.1
2023-04-26T08:22:55.726Z,59.1
2023-04-26T08:23:55.891Z,59.8
2023-04-26T08:24:55.758Z,60
2023-04-26T08:25:55.756Z,60.9
2023-04-26T08:26:55.745Z,61.7
2023-04-26T08:27:55.780Z,59.2
2023-04-26T08:28:55.742Z,58.4
2023-04-26T08:29:55.733Z,58.7
2023-04-26T08:30:55.791Z,59.1
2023-04-26T08:31:55.735Z,59.6
2023-04-26T08:32:55.779Z,60.8
2023-04-26T08:33:55.748Z,60.8
2023-04-26T08:34:55.798Z,61.2
2023-04-26T08:35:55.720Z,60.1
2023-04-26T08:36:55.747Z,60.8
2023-04-26T08:37:55.732Z,60.2
2023-04-26T08:38:55.751Z,60.4
2023-04-26T08:39:55.737Z,59.6
2023-04-26T08:40:55.725Z,59.9
2023-04-26T08:41:55.748Z,60.4
2023-04-26T08:42:55.736Z,61.2
2023-04-26T08:43:55.793Z,59.7
2023-04-26T08:44:55.739Z,59.6
2023-04-26T08:45:55.775Z,59.8
2023-04-26T08:46:55.730Z,59.9
2023-04-26T08:47:55.748Z,60.6
2023-04-26T08:48:55.744Z,58.5
2023-04-26T08:49:55.731Z,57.9
2023-04-26T08:50:55.740Z,55.9
2023-04-26T08:51:55.742Z,56.2
2023-04-26T08:52:55.731Z,57.9
2023-04-26T08:53:55.742Z,58.8
2023-04-26T08:54:55.750Z,57.7
2023-04-26T08:55:55.748Z,56.6
2023-04-26T08:56:55.763Z,58
2023-04-26T08:57:55.732Z,56.9
2023-04-26T08:58:55.750Z,58.1
2023-04-26T08:59:55.732Z,57.8
2023-04-26T09:00:55.742Z,57.3
2023-04-26T09:01:55.753Z,57.2
2023-04-26T09:02:55.954Z,55.7
2023-04-26T09:03:56.187Z,54.8
2023-04-26T09:04:55.835Z,56
2023-04-26T09:05:55.750Z,56.1
2023-04-26T09:06:55.791Z,53.9
2023-04-26T09:07:55.732Z,53.8
2023-04-26T09:08:55.723Z,54.9
2023-04-26T09:09:55.759Z,55.7
2023-04-26T09:10:55.736Z,54.3
2023-04-26T09:11:55.732Z,54.3
2023-04-26T09:12:55.747Z,54.6
2023-04-26T09:13:55.787Z,55.4
2023-04-26T09:14:55.742Z,55.8
2023-04-26T09:15:55.799Z,56.5
2023-04-26T09:16:55.744Z,55.3
2023-04-26T09:17:55.842Z,54.9
2023-04-26T09:18:55.893Z,54
2023-04-26T09:19:55.739Z,54.1
2023-04-26T09:20:55.749Z,53.9
2023-04-26T09:21:55.742Z,54.5
2023-04-26T09:22:55.735Z,54.5
2023-04-26T09:23:55.771Z,52.3
2023-04-26T09:24:55.763Z,50.2
2023-04-26T09:25:56.252Z,51.6
2023-04-26T09:26:55.725Z,52
2023-04-26T09:27:55.752Z,53.3
2023-04-26T09:28:55.757Z,53.3
2023-04-26T09:29:55.772Z,52.4
2023-04-26T09:30:55.771Z,49.8
2023-04-26T09:31:55.864Z,48.8
2023-04-26T09:32:55.890Z,50.1
2023-04-26T09:33:55.748Z,50.8
2023-04-26T09:34:55.742Z,51
2023-04-26T09:35:55.729Z,49.4
2023-04-26T09:36:55.743Z,49.6
2023-04-26T09:38:00.307Z,46.8
2023-04-26T09:38:55.741Z,47.8
2023-04-26T09:39:55.746Z,48.4
2023-04-26T09:40:55.745Z,49
2023-04-26T09:41:55.736Z,48.1
2023-04-26T09:42:55.740Z,47.6
2023-04-26T09:43:55.742Z,46.6
2023-04-26T09:44:55.781Z,44.2
2023-04-26T09:45:55.790Z,45.5
2023-04-26T09:46:55.778Z,45.1
2023-04-26T09:47:55.838Z,43.9
2023-04-26T09:48:55.736Z,43.5
2023-04-26T09:49:55.753Z,43.6
2023-04-26T09:50:55.748Z,44.5
2023-04-26T09:51:55.748Z,43.7
2023-04-26T09:52:55.748Z,45.5
2023-04-26T09:53:56.813Z,45.1
2023-04-26T09:54:55.750Z,46.2
2023-04-26T09:55:55.760Z,47.1
2023-04-26T09:56:55.790Z,46.9
2023-04-26T09:57:55.750Z,46
2023-04-26T09:58:55.744Z,44.9
2023-04-26T09:59:55.919Z,44.3
2023-04-26T10:00:55.768Z,45.7
2023-04-26T10:01:55.750Z,44.8
2023-04-26T10:02:55.755Z,46.5
2023-04-26T10:03:56.019Z,47.7
2023-04-26T10:04:55.842Z,48.2
2023-04-26T10:05:55.755Z,49.1
2023-04-26T10:06:55.746Z,47.7
2023-04-26T10:07:55.757Z,46.4
2023-04-26T10:08:56.163Z,45.8
2023-04-26T10:09:56.019Z,45.6
2023-04-26T10:10:55.833Z,46.2
2023-04-26T10:11:55.921Z,46.3
2023-04-26T10:12:56.025Z,47.8
2023-04-26T10:13:55.747Z,48.1
2023-04-26T10:14:55.730Z,48.7
2023-04-26T10:15:55.752Z,48.6
2023-04-26T10:16:55.813Z,48.3
2023-04-26T10:17:55.789Z,48.5
2023-04-26T10:18:55.955Z,48.8
2023-04-26T10:19:55.777Z,49.1
2023-04-26T10:20:55.741Z,48.6
2023-04-26T10:21:55.745Z,47.2
2023-04-26T10:22:55.761Z,46.2
2023-04-26T10:23:55.749Z,46.3
2023-04-26T10:24:55.744Z,47.6
2023-04-26T10:26:02.182Z,48.8
2023-04-26T10:26:55.772Z,48.1
2023-04-26T10:27:55.743Z,47.8
2023-04-26T10:29:01.457Z,46.9
2023-04-26T10:29:55.761Z,46.7
2023-04-26T10:30:55.755Z,47.1
2023-04-26T10:31:55.787Z,46.8
2023-04-26T10:32:55.744Z,47
2023-04-26T10:33:55.767Z,46.9
2023-04-26T10:34:55.756Z,45.2
2023-04-26T10:35:55.735Z,45.8
2023-04-26T10:36:55.746Z,45.9
2023-04-26T10:37:55.765Z,45.1
2023-04-26T10:38:55.741Z,45.8
2023-04-26T10:39:55.745Z,46.3
2023-04-26T10:40:55.741Z,45.9
2023-04-26T10:41:55.756Z,45.1
2023-04-26T10:42:55.757Z,45.3
2023-04-26T10:43:56.106Z,45.6
2023-04-26T10:44:55.762Z,46.1
2023-04-26T10:46:55.748Z,44.6
2023-04-26T10:47:55.786Z,45.1
2023-04-26T10:48:55.902Z,45.7
2023-04-26T10:49:55.756Z,43.9
2023-04-26T10:50:55.798Z,43.2
2023-04-26T10:51:55.744Z,43.4
2023-04-26T10:52:55.739Z,43.7
2023-04-26T10:53:55.941Z,43.9
2023-04-26T10:54:55.783Z,43.8
2023-04-26T10:55:55.734Z,42.3
2023-04-26T10:56:55.732Z,42.1
2023-04-26T10:57:55.761Z,42.2
2023-04-26T10:58:55.769Z,42.2
2023-04-26T10:59:55.754Z,41.8
2023-04-26T11:00:55.806Z,42.6
2023-04-26T11:01:55.784Z,41.8
2023-04-26T11:02:55.885Z,42.4
2023-04-26T11:03:56.341Z,43.3
2023-04-26T11:04:55.785Z,43.6
2023-04-26T11:05:55.882Z,44.3
2023-04-26T11:06:55.796Z,43.1
2023-04-26T11:07:55.737Z,43.4
2023-04-26T11:08:56.068Z,43.5
2023-04-26T11:09:55.757Z,42.8
2023-04-26T11:11:55.963Z,43.4
2023-04-26T11:12:55.759Z,43.1
2023-04-26T11:13:55.800Z,43.1
2023-04-26T11:14:55.763Z,42.3
2023-04-26T11:15:55.803Z,42.8
2023-04-26T11:16:55.834Z,43.4
2023-04-26T11:18:06.058Z,44
2023-04-26T11:19:06.044Z,44.9
2023-04-26T11:20:06.057Z,44.8
2023-04-26T11:20:55.746Z,44.2
2023-04-26T11:21:56.353Z,44.3
2023-04-26T11:22:55.760Z,43.5
2023-04-26T11:23:55.794Z,43.1
2023-04-26T11:24:55.760Z,43
2023-04-26T11:25:49.750Z,43.6
2023-04-26T11:26:55.748Z,42.7
2023-04-26T11:27:55.786Z,43.2
2023-04-26T11:28:55.750Z,42.9
2023-04-26T11:29:55.757Z,42.5
2023-04-26T11:30:55.909Z,41.3
2023-04-26T11:31:55.889Z,41.3
2023-04-26T11:32:55.823Z,40.7
2023-04-26T11:33:55.776Z,40.8
2023-04-26T11:34:55.761Z,41.5
2023-04-26T11:35:55.852Z,42.3
2023-04-26T11:36:55.764Z,43
2023-04-26T11:37:55.769Z,42.2
2023-04-26T11:38:55.750Z,40.9
2023-04-26T11:39:55.805Z,40.5
2023-04-26T11:40:55.832Z,42.3
2023-04-26T11:41:55.766Z,42.8
2023-04-26T11:42:55.759Z,42.7
2023-04-26T11:43:55.848Z,41.9
2023-04-26T11:44:55.767Z,41.7
2023-04-26T11:45:55.772Z,41.9
2023-04-26T11:46:55.816Z,41.8
2023-04-26T11:47:55.839Z,41.9
2023-04-26T11:48:56.106Z,41.7
2023-04-26T11:49:55.768Z,41.3
2023-04-26T11:50:55.758Z,41.4
2023-04-26T11:51:55.773Z,40.3
2023-04-26T11:52:55.751Z,40.8
2023-04-26T11:53:55.759Z,40.3
2023-04-26T11:54:55.762Z,40.4
2023-04-26T11:56:55.748Z,41.4
2023-04-26T11:57:55.764Z,41.3
2023-04-26T11:58:56.148Z,41.3
2023-04-26T11:59:55.760Z,41.1
2023-04-26T12:00:55.756Z,42.4
2023-04-26T12:01:55.793Z,41.3
2023-04-26T12:02:55.903Z,41.1
2023-04-26T12:03:55.940Z,39.4
2023-04-26T12:04:55.944Z,40
2023-04-26T12:05:55.754Z,39.8
2023-04-26T12:06:55.748Z,41.2
2023-04-26T12:07:55.761Z,42
2023-04-26T12:08:55.764Z,39.6
2023-04-26T12:09:55.795Z,40.6
2023-04-26T12:10:55.800Z,41.8
2023-04-26T12:11:55.828Z,42.2
2023-04-26T12:12:55.778Z,39.2
2023-04-26T12:13:55.757Z,39
2023-04-26T12:14:55.756Z,40.1
2023-04-26T12:15:55.756Z,40.1
2023-04-26T12:16:55.807Z,38.8
2023-04-26T12:17:55.829Z,38.4
2023-04-26T12:18:55.757Z,39.9
2023-04-26T12:19:55.750Z,40.9
2023-04-26T12:20:55.752Z,40.2
2023-04-26T12:21:55.763Z,39.9
2023-04-26T12:22:55.752Z,40.6
2023-04-26T12:23:55.750Z,41.9
2023-04-26T12:24:55.768Z,42
2023-04-26T12:25:55.764Z,40.8
2023-04-26T12:26:55.752Z,41.1
2023-04-26T12:27:55.745Z,38.7
2023-04-26T12:28:55.754Z,38.6
2023-04-26T12:29:55.748Z,38.5
2023-04-26T12:31:55.915Z,38.3
2023-04-26T12:33:00.135Z,38.7
2023-04-26T12:33:55.756Z,38.9
2023-04-26T12:34:55.734Z,40.1
2023-04-26T12:35:55.833Z,40.2
2023-04-26T12:36:55.899Z,39.9
2023-04-26T12:37:55.747Z,38.5
2023-04-26T12:38:55.756Z,38.4
2023-04-26T12:39:55.760Z,37.4
2023-04-26T12:40:55.750Z,37.6
2023-04-26T12:41:55.770Z,38
2023-04-26T12:42:55.785Z,36.8
2023-04-26T12:43:55.826Z,37.1
2023-04-26T12:44:55.778Z,35.9
2023-04-26T12:45:55.807Z,36.5
2023-04-26T12:46:55.766Z,37.5
2023-04-26T12:47:55.822Z,36.4
2023-04-26T12:48:55.749Z,36.9
2023-04-26T12:49:55.777Z,37.4
2023-04-26T12:50:55.776Z,36.5
2023-04-26T12:51:55.750Z,36.9
2023-04-26T12:52:55.847Z,37.3
2023-04-26T12:53:55.789Z,37.9
2023-04-26T12:54:55.753Z,37.2
2023-04-26T12:55:55.759Z,37.7
2023-04-26T12:56:55.764Z,36.5
2023-04-26T12:57:55.761Z,36.7
2023-04-26T12:58:55.776Z,38.2
2023-04-26T12:59:55.764Z,36.3
2023-04-26T13:00:55.774Z,37.3
2023-04-26T13:01:55.972Z,37.7
2023-04-26T13:02:55.927Z,36.9
2023-04-26T13:03:55.982Z,36.9
2023-04-26T13:04:55.855Z,35.7
2023-04-26T13:05:55.766Z,36.3
2023-04-26T13:06:55.788Z,36.6
2023-04-26T13:07:55.772Z,37.2
2023-04-26T13:08:55.764Z,36.9
2023-04-26T13:10:55.784Z,36.8
2023-04-26T13:11:55.765Z,38.8
2023-04-26T13:12:55.770Z,36.9
2023-04-26T13:13:55.774Z,37.5
2023-04-26T13:14:55.761Z,37.3
2023-04-26T13:15:55.836Z,36.4
2023-04-26T13:16:55.774Z,36.5
2023-04-26T13:17:55.895Z,36.6
2023-04-26T13:18:55.854Z,36.6
2023-04-26T13:19:55.777Z,37.4
2023-04-26T13:20:55.781Z,37.4
2023-04-26T13:21:55.769Z,35.9
2023-04-26T13:22:55.787Z,36.2
2023-04-26T13:23:55.958Z,36.9
2023-04-26T13:24:55.790Z,36.2
2023-04-26T13:25:55.779Z,35.4
2023-04-26T13:26:55.764Z,35.3
2023-04-26T13:27:55.791Z,35.4
2023-04-26T13:28:55.769Z,35.5
2023-04-26T13:29:55.776Z,33.1
2023-04-26T13:30:55.781Z,33.6
2023-04-26T13:31:55.863Z,33.8
2023-04-26T13:32:57.502Z,34.9
2023-04-26T13:33:55.822Z,35.3
2023-04-26T13:34:55.757Z,36
2023-04-26T13:35:55.766Z,36.6
2023-04-26T13:36:55.782Z,37.5
2023-04-26T13:37:55.755Z,36.2
2023-04-26T13:38:55.766Z,35.6
2023-04-26T13:39:55.781Z,36.2
2023-04-26T13:40:55.773Z,35.2
2023-04-26T13:41:55.785Z,35.1
2023-04-26T13:42:55.788Z,34.8
2023-04-26T13:43:55.772Z,33.7
2023-04-26T13:44:55.772Z,33.2
2023-04-26T13:45:55.799Z,34.9